Address 0xe8bd10e117547dbb16024978b48a3ad45e0cf4dc 1

Overview

Balance:
5.1749630378 MATIC

Token:
My Name Tag:
Not Available

Txn Hash Method
Block
From
To
Value [Txn Fee]
0x2f69dd70f9a023a0c4cae2c984e88a43c5fd5bc6ece005229355d5fa5614cb06Create Proton Fo...186002802021-09-06 22:05:5339 days 6 hrs ago0xe8bd10e117547dbb16024978b48a3ad45e0cf4dcOUT 0x7059bc03fdda7d10c9dad792b466dcbdaf6b5eb20 MATIC0.00162801
0x4352835344724935fbb6f08cfb2233069c620ddea51c0d9e0e9c5537e7171813Create Proton Fo...186001652021-09-06 22:01:5539 days 6 hrs ago0xe8bd10e117547dbb16024978b48a3ad45e0cf4dcOUT 0x7059bc03fdda7d10c9dad792b466dcbdaf6b5eb20 MATIC0.00162801
0xdc0b1f3da6c0091506bbfc9e8ba799bd29c0abad2c553e2484a92abb6b4fe146Create Proton Fo...186000532021-09-06 21:58:0339 days 6 hrs ago0xe8bd10e117547dbb16024978b48a3ad45e0cf4dcOUT 0x7059bc03fdda7d10c9dad792b466dcbdaf6b5eb20 MATIC0.001302408
0xee2c6fb9808a9c7598f6e9652da337e8d606820a6842cb9ab128ba68d6a3bec6Create Proton Fo...185999512021-09-06 21:54:3539 days 6 hrs ago0xe8bd10e117547dbb16024978b48a3ad45e0cf4dcOUT 0x7059bc03fdda7d10c9dad792b466dcbdaf6b5eb20 MATIC0.00325602
0x2de60265d6fdb20c893c71bd4c2d45f962b47717436aefddbf0351ec6299303eSet Sale Price185949042021-09-06 19:01:0539 days 9 hrs ago0xe8bd10e117547dbb16024978b48a3ad45e0cf4dcOUT 0x7059bc03fdda7d10c9dad792b466dcbdaf6b5eb20 MATIC0.00149235
0xa5fa1ae454f0a20cf67dd8f31583cc358444277d90c94f859be32e7c3a901132Covalent Bond185948322021-09-06 18:58:3739 days 9 hrs ago0xe8bd10e117547dbb16024978b48a3ad45e0cf4dcOUT 0x3a9891279481bb968a8d1300c40d9279111f1cda0 MATIC0.01176546
0x265b86b2150779bf94c3bf96f7c11a454a21440ee35c3e88b4cf198019f7c34fSet Approval For...185948202021-09-06 18:58:1339 days 9 hrs ago0xe8bd10e117547dbb16024978b48a3ad45e0cf4dcOUT 0x52d4828b4a0fd53015953aaa9b4c1df2b68144920 MATIC0.00138606
0x0e87c286cb0e2679a44f0c758c34c8b1e0550217d1e0a58bc999ca18da6a45afSet Sale Price185947802021-09-06 18:56:4939 days 9 hrs ago0xe8bd10e117547dbb16024978b48a3ad45e0cf4dcOUT 0x7059bc03fdda7d10c9dad792b466dcbdaf6b5eb20 MATIC0.00283083
0xce8ea1300fc389526e3c960dfd246760ba32f14cc8c89666b33e22eb3f16a6d6Transfer178029202021-08-18 17:00:1658 days 11 hrs ago0xe84d601e5d945031129a83e5602be0cc7f182cf3 IN 0xe8bd10e117547dbb16024978b48a3ad45e0cf4dc1 MATIC0.00063
0x0936eac6d90aa6164ea06b7b1a8c609436d52fb63521646b0e78ebafede3d988Create Proton Fo...178027452021-08-18 16:54:1458 days 11 hrs ago0xe8bd10e117547dbb16024978b48a3ad45e0cf4dcOUT 0x7059bc03fdda7d10c9dad792b466dcbdaf6b5eb20 MATIC0.00325602
0x0e3c06966519b08d2cfec50c119106b1c0b2ded0b60c8649de9e642865f6b8e9Transfer178026752021-08-18 16:51:5058 days 12 hrs ago0xe84d601e5d945031129a83e5602be0cc7f182cf3 IN 0xe8bd10e117547dbb16024978b48a3ad45e0cf4dc1 MATIC0.00063
0xd1ca3765da72f80f2754b4d19815c399ed5a6ff1988a22d0508a5ec40c8fd554Transfer178025412021-08-18 16:47:1458 days 12 hrs ago0xe84d601e5d945031129a83e5602be0cc7f182cf3 IN 0xe8bd10e117547dbb16024978b48a3ad45e0cf4dc1 MATIC0.00063
0x56d1954520ec1fb272d995d0397e9c96ca1c5fa5cbe0c8f73e2d9202de602cc8Create Proton Fo...178024342021-08-18 16:43:3658 days 12 hrs ago0xe8bd10e117547dbb16024978b48a3ad45e0cf4dcOUT 0x7059bc03fdda7d10c9dad792b466dcbdaf6b5eb20 MATIC0.00325602
0x00212777459087dbd57abda8bf897f3a5f68a8c3d6ac5f0d75719d80bf6aefa0Transfer178024122021-08-18 16:42:4858 days 12 hrs ago0xe84d601e5d945031129a83e5602be0cc7f182cf3 IN 0xe8bd10e117547dbb16024978b48a3ad45e0cf4dc1 MATIC0.00063
0xfd6033a39acb6cd7b7b5180f82094f5a4ad82fb74cc89f6294d0d4913da4c12eCreate Proton Fo...178020482021-08-18 16:30:2058 days 12 hrs ago0xe8bd10e117547dbb16024978b48a3ad45e0cf4dcOUT 0x7059bc03fdda7d10c9dad792b466dcbdaf6b5eb20 MATIC0.00325602
0xab6cdbe04c7536f4fab99c6654bd04d3aed63c792155c3b1196ca75228e830c8Create Proton Fo...178013442021-08-18 16:06:0858 days 12 hrs ago0xe8bd10e117547dbb16024978b48a3ad45e0cf4dcOUT 0x7059bc03fdda7d10c9dad792b466dcbdaf6b5eb20 MATIC0.00325602
0x6687d0dca54d79dbf64e112f60145dcee71b4264e41609db01c7dc6ad1fdda8bCreate Proton Fo...177779842021-08-18 2:38:5259 days 2 hrs ago0xe8bd10e117547dbb16024978b48a3ad45e0cf4dcOUT 0x7059bc03fdda7d10c9dad792b466dcbdaf6b5eb20 MATIC0.01028106
0x3bee422a309bf142978299a729b745aafdae7f4b3ec51446902f2b0efbc3582eSafe Transfer Fr...177776862021-08-18 2:28:3659 days 2 hrs ago0xe8bd10e117547dbb16024978b48a3ad45e0cf4dcOUT 0x7059bc03fdda7d10c9dad792b466dcbdaf6b5eb20 MATIC0.00238176
0x5f51e0e780eab309f5a5ec51d379d3ae1e1098477df7bb26ea07d1c093cfcab6Mint161601922021-07-10 7:26:5697 days 21 hrs ago0xe8bd10e117547dbb16024978b48a3ad45e0cf4dcOUT 0x39f5a11075d1376fa0f8c5b22471db1317813a340 MATIC0.00854154
0x3803a4e443a5262f329271343c109ef4e951c8cedc169ee649f5d88fff7c323cMint161601902021-07-10 7:26:4897 days 21 hrs ago0xe8bd10e117547dbb16024978b48a3ad45e0cf4dcOUT 0x39f5a11075d1376fa0f8c5b22471db1317813a340 MATIC0.00854082
0xea46c9703f913163877f20638b7e1fa578c720a7f25eee48fee38e7d677961abMint161601872021-07-10 7:26:4297 days 21 hrs ago0xe8bd10e117547dbb16024978b48a3ad45e0cf4dcOUT 0x39f5a11075d1376fa0f8c5b22471db1317813a340 MATIC0.00854406
0xde1084469021fe439b253d24a86ba9e33e9dc715dc11dd7feaa3783ab73b80a2Mint161601842021-07-10 7:26:3697 days 21 hrs ago0xe8bd10e117547dbb16024978b48a3ad45e0cf4dcOUT 0x39f5a11075d1376fa0f8c5b22471db1317813a340 MATIC0.0085401
0xe3a1cd309d1406f8b729f89f46597840712dd8ec697446cd954aa59790a909e1Mint161601812021-07-10 7:26:3097 days 21 hrs ago0xe8bd10e117547dbb16024978b48a3ad45e0cf4dcOUT 0x39f5a11075d1376fa0f8c5b22471db1317813a340 MATIC0.00853938
0xa48aa1863356dde3157f7164f50636bd6dd15fffdee2b9d9aac6ecee117ee9f2Mint161601782021-07-10 7:26:2497 days 21 hrs ago0xe8bd10e117547dbb16024978b48a3ad45e0cf4dcOUT 0x39f5a11075d1376fa0f8c5b22471db1317813a340 MATIC0.00854262
0xf1cb2acf544bd82c035a260c7540ba7b9eec5e32570f2454a9828864d5d670feMint161601752021-07-10 7:26:1897 days 21 hrs ago0xe8bd10e117547dbb16024978b48a3ad45e0cf4dcOUT 0x39f5a11075d1376fa0f8c5b22471db1317813a340 MATIC0.00786162
[ Download CSV Export 
Latest 4 internal transactions
Parent Txn Hash Block From To Value
0x775ff989f7bb1001ab6bb19f666e19e46274aee516c82ed7b97f8e0f95b0f6a3160711352021-07-08 4:08:30100 days 45 mins ago 0x52d4828b4a0fd53015953aaa9b4c1df2b68144920xe8bd10e117547dbb16024978b48a3ad45e0cf4dc0.01 MATIC
0x2f74dbac0c6749be0880e646afe87a98a3dae1e0efabdba7eeaaa9ffe0dd3830160710722021-07-08 4:06:20100 days 47 mins ago 0x52d4828b4a0fd53015953aaa9b4c1df2b68144920xe8bd10e117547dbb16024978b48a3ad45e0cf4dc0.01 MATIC
0x75443939d9418421a328110828b49507abfbd2847a711339bd98296f83449479160700532021-07-08 3:31:18100 days 1 hr ago 0x52d4828b4a0fd53015953aaa9b4c1df2b68144920xe8bd10e117547dbb16024978b48a3ad45e0cf4dc0.01 MATIC
0x0d57af0de58e837cf837a82ae1097e6ece602b0b6ac4f0852a1e131e06b056f6160697922021-07-08 3:22:20100 days 1 hr ago 0x52d4828b4a0fd53015953aaa9b4c1df2b68144920xe8bd10e117547dbb16024978b48a3ad45e0cf4dc0.01 MATIC
[ Download CSV Export 
Loading

Contract Name:
0 MATIC

Compiler Version
0

Optimization Enabled:
0 MATIC

Other Settings:
-NA-
Block Transaction Gas Used Reward
Age Block Fee Address BC Fee Address Voting Power Jailed Incoming
Block Uncle Number Difficulty Gas Used Reward
Loading